Time;durP1;ratioP1;P1;durP2;ratioP2;P2;SDS_P1;SDS_P2;PMS_P1;PMS_P2;Temp;Humidity;BMP_temperature;BMP_pressure;BME280_temperature;BME280_humidity;BME280_pressure;Samples;Min_cycle;Max_cycle;Signal;HPM_P1;HPM_P2
2022/04/24 00:00:08;;;;;;;;;34.00;30.00;;;;;;;;5036995;28;47526;-72
2022/04/24 00:02:33;;;;;;;;;30.33;26.67;;;;;;;;5037295;28;45246;-73
2022/04/24 00:04:59;;;;;;;;;34.67;29.67;;;;;;;;5037050;28;45267;-72
2022/04/24 00:07:24;;;;;;;;;28.67;28.00;;;;;;;;5037676;28;45346;-73
2022/04/24 00:09:49;;;;;;;;;34.00;27.00;;;;;;;;5037045;28;45511;-73
2022/04/24 00:12:18;;;;;;;;;30.67;29.33;;;;;;;;5037191;28;45274;-73
2022/04/24 00:14:44;;;;;;;;;30.67;27.33;;;;;;;;5042474;28;45326;-73
2022/04/24 00:17:09;;;;;;;;;38.00;29.67;;;;;;;;5042384;28;45460;-73
2022/04/24 00:19:35;;;;;;;;;24.67;24.67;;;;;;;;5036896;28;46451;-73
2022/04/24 00:22:00;;;;;;;;;32.00;28.67;;;;;;;;5036952;28;45393;-73
2022/04/24 00:24:25;;;;;;;;;30.33;27.33;;;;;;;;5037009;28;45402;-72
2022/04/24 00:26:52;;;;;;;;;31.67;29.00;;;;;;;;5036708;28;45402;-72
2022/04/24 00:29:17;;;;;;;;;36.33;30.00;;;;;;;;5036652;28;47305;-73
2022/04/24 00:31:45;;;;;;;;;36.33;30.67;;;;;;;;5036992;28;45252;-73
2022/04/24 00:34:10;;;;;;;;;37.00;31.67;;;;;;;;5044861;28;45530;-74
2022/04/24 00:36:35;;;;;;;;;30.00;29.00;;;;;;;;5055415;28;45482;-74
2022/04/24 00:39:00;;;;;;;;;29.00;28.33;;;;;;;;5056443;28;46395;-74
2022/04/24 00:41:26;;;;;;;;;31.67;27.00;;;;;;;;5054999;28;45386;-75
2022/04/24 00:43:54;;;;;;;;;30.67;28.00;;;;;;;;5048778;28;45763;-75
2022/04/24 00:46:40;;;;;;;;;33.67;30.00;;;;;;;;5056739;28;45328;-74
2022/04/24 00:49:06;;;;;;;;;35.00;30.00;;;;;;;;5040237;28;45655;-74
2022/04/24 00:51:31;;;;;;;;;37.33;31.33;;;;;;;;5049790;28;45409;-74
2022/04/24 00:53:56;;;;;;;;;32.33;30.33;;;;;;;;5057025;28;45389;-73
2022/04/24 00:56:23;;;;;;;;;37.67;32.00;;;;;;;;5056725;28;45378;-74
2022/04/24 00:58:49;;;;;;;;;39.67;29.00;;;;;;;;5056211;28;46587;-75
2022/04/24 01:01:14;;;;;;;;;33.00;29.33;;;;;;;;5056288;28;45307;-74
2022/04/24 01:03:39;;;;;;;;;32.67;29.00;;;;;;;;5056649;28;45361;-74
2022/04/24 01:06:05;;;;;;;;;31.33;29.67;;;;;;;;5058715;28;45282;-74
2022/04/24 01:08:30;;;;;;;;;33.33;29.67;;;;;;;;5060056;28;46348;-75
2022/04/24 01:10:55;;;;;;;;;34.33;28.67;;;;;;;;5052566;28;45399;-75
2022/04/24 01:13:20;;;;;;;;;36.67;31.67;;;;;;;;5038866;28;46802;-74
2022/04/24 01:15:45;;;;;;;;;31.00;28.33;;;;;;;;5039409;28;45342;-74
2022/04/24 01:18:11;;;;;;;;;31.33;28.00;;;;;;;;5039853;28;45632;-73
2022/04/24 01:20:36;;;;;;;;;30.00;27.67;;;;;;;;5039414;28;45425;-75
2022/04/24 01:23:01;;;;;;;;;32.33;28.67;;;;;;;;5039366;28;45409;-74
2022/04/24 01:25:27;;;;;;;;;30.00;27.67;;;;;;;;5038537;28;45573;-73
2022/04/24 01:27:52;;;;;;;;;34.00;30.67;;;;;;;;5039318;28;45313;-74
2022/04/24 01:30:17;;;;;;;;;37.00;28.00;;;;;;;;5039396;28;45427;-74
2022/04/24 01:32:42;;;;;;;;;21.33;20.33;;;;;;;;5037883;28;45531;-74
2022/04/24 01:35:08;;;;;;;;;33.00;29.67;;;;;;;;5038402;28;46450;-74
2022/04/24 01:37:33;;;;;;;;;40.33;32.00;;;;;;;;5037686;28;46086;-73
2022/04/24 01:39:59;;;;;;;;;37.00;30.00;;;;;;;;5037938;28;45760;-74
2022/04/24 01:42:24;;;;;;;;;34.33;30.00;;;;;;;;5038300;28;45453;-74
2022/04/24 01:44:50;;;;;;;;;37.33;30.67;;;;;;;;5038117;28;45432;-75
2022/04/24 01:47:15;;;;;;;;;37.00;31.33;;;;;;;;5037916;28;46451;-73
2022/04/24 01:49:40;;;;;;;;;36.67;30.00;;;;;;;;5037708;28;45372;-73
2022/04/24 01:52:06;;;;;;;;;32.00;29.67;;;;;;;;5038137;28;45400;-73
2022/04/24 01:54:31;;;;;;;;;38.67;30.33;;;;;;;;5039327;28;45451;-73
2022/04/24 01:56:57;;;;;;;;;33.33;29.00;;;;;;;;5038904;28;46386;-73
2022/04/24 01:59:22;;;;;;;;;32.67;30.33;;;;;;;;5025008;28;45448;-74
2022/04/24 02:01:47;;;;;;;;;27.00;27.00;;;;;;;;5024332;28;45460;-73
2022/04/24 02:04:12;;;;;;;;;38.33;32.00;;;;;;;;5023906;28;45530;-73
2022/04/24 02:06:38;;;;;;;;;37.00;31.67;;;;;;;;5038738;28;45338;-70
2022/04/24 02:09:03;;;;;;;;;31.33;29.33;;;;;;;;5038883;28;45590;-74
2022/04/24 02:11:28;;;;;;;;;41.00;32.00;;;;;;;;5030904;28;45464;-73
2022/04/24 02:13:54;;;;;;;;;41.33;31.67;;;;;;;;5023240;28;45398;-73
2022/04/24 02:16:19;;;;;;;;;43.00;33.00;;;;;;;;5038336;28;45468;-74
2022/04/24 02:18:44;;;;;;;;;35.67;32.00;;;;;;;;5038006;28;45319;-74
2022/04/24 02:21:10;;;;;;;;;39.67;34.00;;;;;;;;5030465;28;45413;-71
2022/04/24 02:23:35;;;;;;;;;43.33;33.67;;;;;;;;5039115;28;45169;-71
2022/04/24 02:26:00;;;;;;;;;46.67;34.33;;;;;;;;5037849;28;45472;-72
2022/04/24 02:28:26;;;;;;;;;40.67;34.67;;;;;;;;5038964;28;45235;-72
2022/04/24 02:30:51;;;;;;;;;42.67;35.67;;;;;;;;5038385;28;45479;-72
2022/04/24 02:33:16;;;;;;;;;38.00;32.33;;;;;;;;5038843;28;45452;-72
2022/04/24 02:35:41;;;;;;;;;36.67;32.67;;;;;;;;5035621;28;46209;-72
2022/04/24 02:38:07;;;;;;;;;43.67;35.00;;;;;;;;5018665;28;45235;-71
2022/04/24 02:40:32;;;;;;;;;38.67;34.00;;;;;;;;5029624;28;45250;-71
2022/04/24 02:42:57;;;;;;;;;45.67;36.00;;;;;;;;5021406;28;45314;-71
2022/04/24 02:45:22;;;;;;;;;37.00;32.00;;;;;;;;5038673;28;46442;-71
2022/04/24 02:47:48;;;;;;;;;43.00;35.00;;;;;;;;5038403;28;45758;-71
2022/04/24 02:50:14;;;;;;;;;40.33;33.33;;;;;;;;5038724;28;45311;-70
2022/04/24 02:52:49;;;;;;;;;36.67;32.33;;;;;;;;5038771;28;45402;-72
2022/04/24 02:55:15;;;;;;;;;43.67;35.00;;;;;;;;5038181;28;46049;-72
2022/04/24 02:57:41;;;;;;;;;42.33;34.00;;;;;;;;5018062;28;45381;-71
2022/04/24 03:00:07;;;;;;;;;40.67;33.00;;;;;;;;5038737;28;45325;-71
2022/04/24 03:02:38;;;;;;;;;42.67;32.00;;;;;;;;5038213;28;45455;-72
2022/04/24 03:05:03;;;;;;;;;32.33;29.00;;;;;;;;5038082;28;46747;-72
2022/04/24 03:07:28;;;;;;;;;38.67;32.67;;;;;;;;5037905;28;45416;-72
2022/04/24 03:09:54;;;;;;;;;27.33;24.33;;;;;;;;5032722;28;46070;-71
2022/04/24 03:12:19;;;;;;;;;34.00;32.00;;;;;;;;5024190;28;45440;-71
2022/04/24 03:14:44;;;;;;;;;33.33;30.33;;;;;;;;5018152;28;46302;-71
2022/04/24 03:17:10;;;;;;;;;31.33;28.67;;;;;;;;5041261;28;45476;-72
2022/04/24 03:19:35;;;;;;;;;33.00;30.00;;;;;;;;5057703;28;45333;-73
2022/04/24 03:22:00;;;;;;;;;40.00;31.67;;;;;;;;5058322;28;45349;-74
2022/04/24 03:24:25;;;;;;;;;31.33;30.00;;;;;;;;5057825;28;45292;-74
2022/04/24 03:26:51;;;;;;;;;30.33;28.00;;;;;;;;5044251;28;45441;-74
2022/04/24 03:29:16;;;;;;;;;27.33;25.00;;;;;;;;5051355;28;45468;-75
2022/04/24 03:31:41;;;;;;;;;34.00;29.67;;;;;;;;5058159;28;45389;-74
2022/04/24 03:34:07;;;;;;;;;30.67;28.00;;;;;;;;5048305;28;46299;-72
2022/04/24 03:36:32;;;;;;;;;35.67;30.67;;;;;;;;5057969;28;45497;-72
2022/04/24 03:38:57;;;;;;;;;31.00;28.00;;;;;;;;5046601;28;45295;-74
2022/04/24 03:41:22;;;;;;;;;28.67;26.33;;;;;;;;5058026;28;45387;-74
2022/04/24 03:43:48;;;;;;;;;30.00;26.67;;;;;;;;5057240;28;46270;-74
2022/04/24 03:46:13;;;;;;;;;29.67;24.00;;;;;;;;5057398;28;45245;-74
2022/04/24 03:48:38;;;;;;;;;26.67;25.00;;;;;;;;5057879;28;45493;-74
2022/04/24 03:51:04;;;;;;;;;33.00;27.00;;;;;;;;5058251;28;45298;-73
2022/04/24 03:53:29;;;;;;;;;29.00;26.67;;;;;;;;5029464;28;46617;-75
2022/04/24 03:55:54;;;;;;;;;31.67;28.67;;;;;;;;5045000;28;45245;-73
2022/04/24 03:58:20;;;;;;;;;25.33;23.00;;;;;;;;5057811;28;45707;-74
2022/04/24 04:00:45;;;;;;;;;41.00;34.67;;;;;;;;5058005;28;45239;-73
2022/04/24 04:03:10;;;;;;;;;19.33;18.00;;;;;;;;5057321;28;45469;-75
2022/04/24 04:05:37;;;;;;;;;27.67;23.67;;;;;;;;5057344;28;45384;-74
2022/04/24 04:08:03;;;;;;;;;24.00;22.33;;;;;;;;5044310;28;45764;-74
2022/04/24 04:10:28;;;;;;;;;25.33;23.33;;;;;;;;5037524;28;45365;-73
2022/04/24 04:12:54;;;;;;;;;28.67;26.33;;;;;;;;5036975;28;46083;-74
2022/04/24 04:15:19;;;;;;;;;27.33;23.33;;;;;;;;5043957;28;45425;-74
2022/04/24 04:17:44;;;;;;;;;32.33;28.67;;;;;;;;5037567;28;45393;-73
2022/04/24 04:20:11;;;;;;;;;26.00;20.00;;;;;;;;5037577;28;45470;-72
2022/04/24 04:22:43;;;;;;;;;25.33;23.67;;;;;;;;5037121;28;46767;-74
2022/04/24 04:25:08;;;;;;;;;24.33;22.33;;;;;;;;5039339;28;45401;-74
2022/04/24 04:27:34;;;;;;;;;31.33;27.67;;;;;;;;5057207;28;45388;-75
2022/04/24 04:29:59;;;;;;;;;22.33;22.00;;;;;;;;5057528;28;45281;-75
2022/04/24 04:32:24;;;;;;;;;23.67;23.67;;;;;;;;5047204;28;45488;-74
2022/04/24 04:34:49;;;;;;;;;23.33;21.33;;;;;;;;5042341;28;45492;-75
2022/04/24 04:37:14;;;;;;;;;25.00;20.33;;;;;;;;5056947;28;45510;-75
2022/04/24 04:39:40;;;;;;;;;24.33;21.33;;;;;;;;5057499;28;45371;-75
2022/04/24 04:42:06;;;;;;;;;24.33;21.67;;;;;;;;5042249;28;46363;-74
2022/04/24 04:44:31;;;;;;;;;27.67;23.00;;;;;;;;5060359;28;45340;-73
2022/04/24 04:46:56;;;;;;;;;21.00;20.00;;;;;;;;5046961;28;45352;-73
2022/04/24 04:49:21;;;;;;;;;19.33;19.33;;;;;;;;5054513;28;45401;-75
2022/04/24 04:51:47;;;;;;;;;22.67;19.33;;;;;;;;5060429;28;46307;-74
2022/04/24 04:54:12;;;;;;;;;23.33;19.67;;;;;;;;5046878;28;45319;-74
2022/04/24 04:56:37;;;;;;;;;17.67;17.67;;;;;;;;5056106;28;45303;-73
2022/04/24 04:59:03;;;;;;;;;26.67;21.00;;;;;;;;5040713;28;45350;-74
2022/04/24 05:01:28;;;;;;;;;20.33;20.00;;;;;;;;5040297;28;45258;-73
2022/04/24 05:03:53;;;;;;;;;20.67;17.67;;;;;;;;5040180;28;45374;-73
2022/04/24 05:06:18;;;;;;;;;19.00;16.67;;;;;;;;5023353;28;45329;-73
2022/04/24 05:08:44;;;;;;;;;21.00;18.00;;;;;;;;5020436;28;45421;-73
2022/04/24 05:11:09;;;;;;;;;19.00;18.67;;;;;;;;5020011;28;46515;-74
2022/04/24 05:13:34;;;;;;;;;21.67;17.00;;;;;;;;5020250;28;45296;-74
2022/04/24 05:15:59;;;;;;;;;17.67;17.67;;;;;;;;5034364;28;45346;-74
2022/04/24 05:18:26;;;;;;;;;23.33;21.33;;;;;;;;5020196;28;45141;-73
2022/04/24 05:20:51;;;;;;;;;19.33;18.00;;;;;;;;5045735;28;46540;-73
2022/04/24 05:23:16;;;;;;;;;21.33;18.00;;;;;;;;5058780;28;45737;-73
2022/04/24 05:25:41;;;;;;;;;20.00;17.00;;;;;;;;5060398;28;45321;-74
2022/04/24 05:28:07;;;;;;;;;19.00;16.67;;;;;;;;5060129;28;45374;-73
2022/04/24 05:30:33;;;;;;;;;19.00;16.00;;;;;;;;5047867;28;46250;-74
2022/04/24 05:32:58;;;;;;;;;18.33;18.00;;;;;;;;5058524;28;45392;-74
2022/04/24 05:35:23;;;;;;;;;16.33;15.33;;;;;;;;5059661;28;45439;-74
2022/04/24 05:37:49;;;;;;;;;17.67;16.00;;;;;;;;5060139;28;45352;-75
2022/04/24 05:40:15;;;;;;;;;16.33;14.00;;;;;;;;5059438;28;45717;-74
2022/04/24 05:42:46;;;;;;;;;19.67;17.00;;;;;;;;5059538;28;45429;-74
2022/04/24 05:45:14;;;;;;;;;17.67;15.33;;;;;;;;5039737;28;45528;-75
2022/04/24 05:47:40;;;;;;;;;18.00;15.67;;;;;;;;5039634;28;45707;-74
2022/04/24 05:50:05;;;;;;;;;18.67;17.33;;;;;;;;5046296;28;46080;-77
2022/04/24 05:52:30;;;;;;;;;21.00;17.00;;;;;;;;5059017;28;45725;-75
2022/04/24 05:54:57;;;;;;;;;18.00;16.33;;;;;;;;5059495;28;45377;-76
2022/04/24 05:57:22;;;;;;;;;17.00;15.67;;;;;;;;5022436;28;45332;-74
2022/04/24 05:59:47;;;;;;;;;17.00;15.00;;;;;;;;5041309;28;45412;-74
2022/04/24 06:02:13;;;;;;;;;13.00;13.00;;;;;;;;5039060;28;45339;-73
2022/04/24 06:04:38;;;;;;;;;20.67;17.00;;;;;;;;5039041;28;45417;-73
2022/04/24 06:07:03;;;;;;;;;21.00;18.00;;;;;;;;5027875;28;45343;-74
2022/04/24 06:09:29;;;;;;;;;14.00;14.00;;;;;;;;5018701;28;45638;-79
2022/04/24 06:11:58;;;;;;;;;15.67;15.67;;;;;;;;5019266;28;45239;-74
2022/04/24 06:14:23;;;;;;;;;16.33;16.00;;;;;;;;5019473;28;45429;-72
2022/04/24 06:16:48;;;;;;;;;18.00;17.00;;;;;;;;5028608;28;45316;-80
2022/04/24 06:19:13;;;;;;;;;19.33;14.33;;;;;;;;5039075;28;47247;-75
2022/04/24 06:21:39;;;;;;;;;17.00;15.50;;;;;;;;5033260;28;45341;-77
2022/04/24 06:24:04;;;;;;;;;17.00;16.33;;;;;;;;5019747;28;45413;-75
2022/04/24 06:26:31;;;;;;;;;17.33;15.67;;;;;;;;5020113;28;45728;-74
2022/04/24 06:28:56;;;;;;;;;18.00;17.67;;;;;;;;5026202;28;46988;-73
2022/04/24 06:31:21;;;;;;;;;18.67;18.67;;;;;;;;5038797;28;45381;-73
2022/04/24 06:33:46;;;;;;;;;14.33;14.33;;;;;;;;5037679;28;45385;-72
2022/04/24 06:36:12;;;;;;;;;18.00;17.33;;;;;;;;5034373;28;45448;-72
2022/04/24 06:38:37;;;;;;;;;19.67;16.33;;;;;;;;5019105;28;45341;-73
2022/04/24 06:41:02;;;;;;;;;17.33;17.00;;;;;;;;5018686;28;45331;-73
2022/04/24 06:43:27;;;;;;;;;21.33;19.33;;;;;;;;5019111;28;45365;-75
2022/04/24 06:45:53;;;;;;;;;19.67;18.33;;;;;;;;5019395;28;45469;-73
2022/04/24 06:48:18;;;;;;;;;16.33;16.33;;;;;;;;5018416;28;46460;-69
2022/04/24 06:50:44;;;;;;;;;16.33;15.33;;;;;;;;5018404;28;45391;-74
2022/04/24 06:53:14;;;;;;;;;21.00;16.67;;;;;;;;5018799;28;45460;-76
2022/04/24 06:55:40;;;;;;;;;21.00;17.67;;;;;;;;5027009;28;45351;-83
2022/04/24 06:58:06;;;;;;;;;17.33;16.67;;;;;;;;5022068;28;46263;-73
2022/04/24 07:00:33;;;;;;;;;17.67;17.00;;;;;;;;5030083;28;45436;-73
2022/04/24 07:02:58;;;;;;;;;15.33;15.00;;;;;;;;5017646;28;45413;-69
2022/04/24 07:05:25;;;;;;;;;18.33;16.67;;;;;;;;5037284;28;45683;-71
2022/04/24 07:07:51;;;;;;;;;17.33;14.33;;;;;;;;5036569;28;47161;-68
2022/04/24 07:10:16;;;;;;;;;17.33;16.67;;;;;;;;5018335;28;45317;-70
2022/04/24 07:12:45;;;;;;;;;17.33;13.67;;;;;;;;5018385;28;45218;-72
2022/04/24 07:15:10;;;;;;;;;21.33;16.67;;;;;;;;5018957;28;45349;-79
2022/04/24 07:17:35;;;;;;;;;20.00;18.00;;;;;;;;5017742;28;45417;-74
2022/04/24 07:20:00;;;;;;;;;27.67;24.67;;;;;;;;5018145;28;45306;-75
2022/04/24 07:22:25;;;;;;;;;17.33;16.67;;;;;;;;5017792;28;45318;-75
2022/04/24 07:24:51;;;;;;;;;20.00;18.33;;;;;;;;5047099;28;45485;-74
2022/04/24 07:27:16;;;;;;;;;21.33;17.00;;;;;;;;5057969;28;45419;-75
2022/04/24 07:29:41;;;;;;;;;24.33;19.67;;;;;;;;5058068;28;45486;-74
2022/04/24 07:32:07;;;;;;;;;20.00;18.33;;;;;;;;5044304;28;45371;-72
2022/04/24 07:34:32;;;;;;;;;21.67;17.33;;;;;;;;5038068;28;45445;-72
2022/04/24 07:36:59;;;;;;;;;22.67;20.33;;;;;;;;5036744;28;46538;-72
2022/04/24 07:39:24;;;;;;;;;22.67;18.67;;;;;;;;5046837;28;45274;-72
2022/04/24 07:41:49;;;;;;;;;16.00;13.67;;;;;;;;5054779;28;45402;-72
2022/04/24 07:44:14;;;;;;;;;17.33;15.67;;;;;;;;5051466;28;45448;-72
2022/04/24 07:46:39;;;;;;;;;23.00;17.33;;;;;;;;5057535;28;47139;-72
2022/04/24 07:49:05;;;;;;;;;19.00;19.00;;;;;;;;5055045;28;45528;-74
2022/04/24 07:51:30;;;;;;;;;20.00;19.67;;;;;;;;5037692;28;45431;-72
2022/04/24 07:53:55;;;;;;;;;17.67;17.67;;;;;;;;5037937;28;45232;-71
2022/04/24 07:56:20;;;;;;;;;21.00;17.67;;;;;;;;5036770;28;45192;-75
2022/04/24 07:58:46;;;;;;;;;19.67;19.00;;;;;;;;5047637;28;45294;-73
2022/04/24 08:01:11;;;;;;;;;19.67;18.67;;;;;;;;5037484;28;45186;-73
2022/04/24 08:03:36;;;;;;;;;20.67;20.67;;;;;;;;5032544;28;45497;-75
2022/04/24 08:06:01;;;;;;;;;20.67;19.33;;;;;;;;5036329;28;45404;-73
2022/04/24 08:08:27;;;;;;;;;21.33;20.33;;;;;;;;5037550;28;45355;-72
2022/04/24 08:10:56;;;;;;;;;22.67;21.00;;;;;;;;5036735;28;45423;-74
2022/04/24 08:13:22;;;;;;;;;16.33;15.00;;;;;;;;5037254;28;45467;-73
2022/04/24 08:15:48;;;;;;;;;19.67;17.33;;;;;;;;5035719;28;46259;-74
2022/04/24 08:18:13;;;;;;;;;18.67;16.67;;;;;;;;5036900;28;45447;-75
2022/04/24 08:20:39;;;;;;;;;20.67;18.33;;;;;;;;5037252;28;45349;-76
2022/04/24 08:23:05;;;;;;;;;25.00;22.33;;;;;;;;5037429;28;45500;-77
2022/04/24 08:25:35;;;;;;;;;25.00;22.00;;;;;;;;5035874;28;47141;-76
2022/04/24 08:28:02;;;;;;;;;24.00;20.33;;;;;;;;5036798;28;45420;-75
2022/04/24 08:30:27;;;;;;;;;22.33;22.33;;;;;;;;5049103;28;45294;-75
2022/04/24 08:32:53;;;;;;;;;28.67;22.33;;;;;;;;5043728;28;45333;-74
2022/04/24 08:35:19;;;;;;;;;24.67;22.00;;;;;;;;5056971;28;45431;-75
2022/04/24 08:37:45;;;;;;;;;25.00;22.67;;;;;;;;5050683;28;45404;-75
2022/04/24 08:40:11;;;;;;;;;23.67;20.00;;;;;;;;5037337;28;45246;-74
2022/04/24 08:42:37;;;;;;;;;24.33;21.33;;;;;;;;5029742;28;45509;-74
2022/04/24 08:45:03;;;;;;;;;27.33;22.33;;;;;;;;5029647;28;45889;-75
2022/04/24 08:47:29;;;;;;;;;26.00;23.33;;;;;;;;5027921;28;45328;-73
2022/04/24 08:49:55;;;;;;;;;27.00;24.00;;;;;;;;5036443;28;45482;-74
2022/04/24 08:52:21;;;;;;;;;26.67;23.67;;;;;;;;5037477;28;45552;-76
2022/04/24 08:54:46;;;;;;;;;25.33;23.33;;;;;;;;5046557;28;47501;-75
2022/04/24 08:57:12;;;;;;;;;22.67;21.67;;;;;;;;5056163;28;45201;-75
2022/04/24 08:59:38;;;;;;;;;30.33;27.00;;;;;;;;5042314;28;45832;-74
2022/04/24 09:02:04;;;;;;;;;24.33;20.67;;;;;;;;5055448;28;45518;-75
2022/04/24 09:04:33;;;;;;;;;23.67;22.67;;;;;;;;5056125;28;47451;-74
2022/04/24 09:06:59;;;;;;;;;25.33;21.33;;;;;;;;5054978;28;45420;-75
2022/04/24 09:09:24;;;;;;;;;25.00;22.33;;;;;;;;5051175;28;45527;-73
2022/04/24 09:11:49;;;;;;;;;23.00;23.00;;;;;;;;5055272;28;45384;-74
2022/04/24 09:14:15;;;;;;;;;23.67;20.00;;;;;;;;5040105;28;46608;-78
2022/04/24 09:16:47;;;;;;;;;32.00;28.00;;;;;;;;5044959;28;45301;-79
2022/04/24 09:19:21;;;;;;;;;29.33;26.33;;;;;;;;5029044;28;45441;-76
2022/04/24 09:21:47;;;;;;;;;30.67;26.33;;;;;;;;5032040;28;45842;-75
2022/04/24 09:24:13;;;;;;;;;29.67;27.67;;;;;;;;5052085;28;47174;-76
2022/04/24 09:26:48;;;;;;;;;30.00;27.67;;;;;;;;5032892;28;45501;-70
2022/04/24 09:29:13;;;;;;;;;30.00;26.33;;;;;;;;5042548;28;45477;-72
2022/04/24 09:31:43;;;;;;;;;25.00;22.67;;;;;;;;5036606;28;45314;-73
2022/04/24 09:34:08;;;;;;;;;30.67;27.00;;;;;;;;5030241;28;45753;-75
2022/04/24 09:36:33;;;;;;;;;28.00;27.00;;;;;;;;5034962;28;45306;-75
2022/04/24 09:38:58;;;;;;;;;24.00;21.67;;;;;;;;5039453;28;45892;-75
2022/04/24 09:41:24;;;;;;;;;28.67;26.00;;;;;;;;5039373;28;45366;-72
2022/04/24 09:43:49;;;;;;;;;27.67;26.33;;;;;;;;5020676;28;46482;-76
2022/04/24 09:46:28;;;;;;;;;26.00;25.33;;;;;;;;5039668;28;45410;-77
2022/04/24 09:48:57;;;;;;;;;25.67;25.00;;;;;;;;5037525;28;45540;-73
2022/04/24 09:51:22;;;;;;;;;22.33;21.33;;;;;;;;5037044;28;45625;-69
2022/04/24 09:53:48;;;;;;;;;29.67;25.33;;;;;;;;5038791;28;45453;-71
2022/04/24 09:56:14;;;;;;;;;27.67;27.00;;;;;;;;5038139;28;45750;-69
2022/04/24 09:58:40;;;;;;;;;26.33;26.00;;;;;;;;5039749;28;45255;-69
2022/04/24 10:01:08;;;;;;;;;31.33;24.33;;;;;;;;5039659;28;45578;-75
2022/04/24 10:03:35;;;;;;;;;25.00;24.00;;;;;;;;5035595;28;46698;-75
2022/04/24 10:06:02;;;;;;;;;23.00;20.00;;;;;;;;5035955;28;45311;-77
2022/04/24 10:08:28;;;;;;;;;23.33;22.33;;;;;;;;5039153;28;45580;-73
2022/04/24 10:10:53;;;;;;;;;23.67;20.33;;;;;;;;5049730;28;45413;-74
2022/04/24 10:13:20;;;;;;;;;25.00;24.00;;;;;;;;5038272;28;45433;-75
2022/04/24 10:15:48;;;;;;;;;23.67;18.33;;;;;;;;5038913;28;45432;-75
2022/04/24 10:18:19;;;;;;;;;25.00;23.67;;;;;;;;5039145;28;45221;-74
2022/04/24 10:21:03;;;;;;;;;17.67;17.67;;;;;;;;5039330;28;45539;-75
2022/04/24 10:23:29;;;;;;;;;21.67;21.67;;;;;;;;5037776;28;45472;-74
2022/04/24 10:25:54;;;;;;;;;26.75;24.75;;;;;;;;5034349;28;45361;-75
2022/04/24 10:28:20;;;;;;;;;28.50;25.50;;;;;;;;5058258;28;45378;-75
2022/04/24 10:30:58;;;;;;;;;20.75;18.00;;;;;;;;5059130;28;45344;-74
2022/04/24 10:33:25;;;;;;;;;25.00;23.00;;;;;;;;5058660;28;47825;-73
2022/04/24 10:35:54;;;;;;;;;23.25;22.00;;;;;;;;5039901;28;45365;-73
2022/04/24 10:38:23;;;;;;;;;21.00;19.50;;;;;;;;5055799;28;45384;-74
2022/04/24 10:41:13;;;;;;;;;18.25;18.25;;;;;;;;5058764;28;45519;-74
2022/04/24 10:43:44;;;;;;;;;21.75;19.25;;;;;;;;5057797;28;45579;-74
2022/04/24 10:46:20;;;;;;;;;16.50;16.50;;;;;;;;5037681;28;45516;-74
2022/04/24 10:48:46;;;;;;;;;20.75;19.00;;;;;;;;5038348;28;45506;-72
2022/04/24 10:51:12;;;;;;;;;18.00;18.00;;;;;;;;5031571;28;45463;-73
2022/04/24 10:53:49;;;;;;;;;22.67;19.67;;;;;;;;5033544;28;46548;-74
2022/04/24 10:56:15;;;;;;;;;19.25;17.25;;;;;;;;5037136;28;45249;-74
2022/04/24 10:58:40;;;;;;;;;22.33;20.33;;;;;;;;5036481;28;45422;-74
2022/04/24 11:01:14;;;;;;;;;25.00;22.00;;;;;;;;5037298;28;45428;-75
2022/04/24 11:03:41;;;;;;;;;19.00;19.00;;;;;;;;5037144;28;45685;-72
2022/04/24 11:06:16;;;;;;;;;19.00;19.00;;;;;;;;5037092;28;45276;-74
2022/04/24 11:08:41;;;;;;;;;17.00;15.33;;;;;;;;5036765;28;45353;-75
2022/04/24 11:11:06;;;;;;;;;23.33;20.33;;;;;;;;5025688;28;45517;-76
2022/04/24 11:13:32;;;;;;;;;18.33;15.33;;;;;;;;5033699;28;46204;-76
2022/04/24 11:15:59;;;;;;;;;23.67;19.00;;;;;;;;5051909;28;45444;-74
2022/04/24 11:18:26;;;;;;;;;19.33;17.33;;;;;;;;5034074;28;45690;-74
2022/04/24 11:21:03;;;;;;;;;16.00;16.00;;;;;;;;5043148;28;45636;-75
2022/04/24 11:23:29;;;;;;;;;20.33;17.33;;;;;;;;5037105;28;46515;-75
2022/04/24 11:25:55;;;;;;;;;20.67;16.67;;;;;;;;5037133;28;45520;-74
2022/04/24 11:28:21;;;;;;;;;18.00;18.00;;;;;;;;5037474;28;45221;-75
2022/04/24 11:30:46;;;;;;;;;15.67;15.67;;;;;;;;5037025;28;45514;-75
2022/04/24 11:33:12;;;;;;;;;18.33;17.00;;;;;;;;5036473;28;46554;-77
2022/04/24 11:35:38;;;;;;;;;17.00;16.00;;;;;;;;5037426;28;45413;-74
2022/04/24 11:38:04;;;;;;;;;16.00;15.00;;;;;;;;5037293;28;45470;-74
2022/04/24 11:40:30;;;;;;;;;15.33;15.00;;;;;;;;5037483;28;45573;-74
2022/04/24 11:43:02;;;;;;;;;19.33;17.33;;;;;;;;5036306;28;46560;-74
2022/04/24 11:51:02;;;;;;;;;18.00;16.00;;;;;;;;5036706;28;45504;-75
2022/04/24 11:53:28;;;;;;;;;18.33;13.67;;;;;;;;5037009;28;46533;-74
2022/04/24 11:56:02;;;;;;;;;15.33;13.00;;;;;;;;5036540;28;45455;-74
2022/04/24 11:58:34;;;;;;;;;18.00;15.67;;;;;;;;5037026;28;45377;-76
2022/04/24 12:01:02;;;;;;;;;14.33;13.00;;;;;;;;5037237;28;45428;-75
2022/04/24 12:03:28;;;;;;;;;18.33;15.00;;;;;;;;5036666;28;47072;-75
2022/04/24 12:06:00;;;;;;;;;18.00;18.00;;;;;;;;5036792;28;45404;-75
2022/04/24 12:08:26;;;;;;;;;15.00;13.00;;;;;;;;5036905;28;45385;-74
2022/04/24 12:10:52;;;;;;;;;17.00;14.00;;;;;;;;5036164;28;45437;-74
2022/04/24 12:13:23;;;;;;;;;15.00;10.00;;;;;;;;5036288;28;45500;-75
2022/04/24 12:15:49;;;;;;;;;18.67;17.00;;;;;;;;5031389;28;45515;-76
2022/04/24 12:18:19;;;;;;;;;17.33;15.67;;;;;;;;5036798;28;45354;-75
2022/04/24 12:20:45;;;;;;;;;16.00;13.67;;;;;;;;5036452;28;45824;-73
2022/04/24 12:23:11;;;;;;;;;21.00;19.67;;;;;;;;5036663;28;46962;-74
2022/04/24 12:25:45;;;;;;;;;15.33;14.00;;;;;;;;5036593;28;46035;-76
2022/04/24 12:28:10;;;;;;;;;15.00;14.33;;;;;;;;5036741;28;45381;-75
2022/04/24 12:30:35;;;;;;;;;19.33;17.33;;;;;;;;5036861;28;45239;-74
2022/04/24 12:33:05;;;;;;;;;21.33;18.33;;;;;;;;5036464;28;46566;-76
2022/04/24 12:35:33;;;;;;;;;20.33;16.33;;;;;;;;5035926;28;45341;-74
2022/04/24 12:38:01;;;;;;;;;22.33;14.67;;;;;;;;5036358;28;45356;-75
2022/04/24 12:40:27;;;;;;;;;15.67;13.67;;;;;;;;5035967;28;45326;-74
2022/04/24 12:42:55;;;;;;;;;17.67;16.00;;;;;;;;5035461;28;45617;-74
2022/04/24 12:45:21;;;;;;;;;17.67;16.33;;;;;;;;5035894;28;45436;-77
2022/04/24 12:47:47;;;;;;;;;17.33;15.67;;;;;;;;5036020;28;45429;-77
2022/04/24 12:50:13;;;;;;;;;15.67;12.67;;;;;;;;5035532;28;45496;-74
2022/04/24 12:52:38;;;;;;;;;17.33;13.33;;;;;;;;5044413;28;45550;-74
2022/04/24 12:55:04;;;;;;;;;16.00;16.00;;;;;;;;5056243;28;45419;-75
2022/04/24 12:57:29;;;;;;;;;20.33;17.00;;;;;;;;5041160;28;45494;-75
2022/04/24 12:59:54;;;;;;;;;18.00;18.00;;;;;;;;5036216;28;45413;-75
2022/04/24 13:02:21;;;;;;;;;23.33;21.67;;;;;;;;5038090;28;46608;-77
2022/04/24 13:04:46;;;;;;;;;22.33;21.33;;;;;;;;5039668;28;45307;-78
2022/04/24 13:07:12;;;;;;;;;20.33;20.33;;;;;;;;5039822;28;45212;-76
2022/04/24 13:09:38;;;;;;;;;18.33;18.00;;;;;;;;5054417;28;45357;-76
2022/04/24 13:12:04;;;;;;;;;21.67;19.67;;;;;;;;5059602;28;45282;-76
2022/04/24 13:14:29;;;;;;;;;19.67;18.67;;;;;;;;5059722;28;45504;-77
2022/04/24 13:19:39;;;;;;;;;24.00;21.33;;;;;;;;5039841;28;45713;-77
2022/04/24 13:22:04;;;;;;;;;24.33;20.67;;;;;;;;5039424;28;46358;-76
2022/04/24 13:24:29;;;;;;;;;21.67;20.00;;;;;;;;5039421;28;45305;-77
2022/04/24 13:26:54;;;;;;;;;24.00;20.50;;;;;;;;5039132;28;45471;-75
2022/04/24 13:29:20;;;;;;;;;19.00;16.67;;;;;;;;5039758;28;45543;-77
2022/04/24 13:31:47;;;;;;;;;20.67;20.67;;;;;;;;5032753;28;45651;-78
2022/04/24 13:34:13;;;;;;;;;21.00;18.33;;;;;;;;5037093;28;45472;-79
2022/04/24 13:36:38;;;;;;;;;26.00;20.67;;;;;;;;5039345;28;45388;-77
2022/04/24 13:39:05;;;;;;;;;22.00;22.00;;;;;;;;5039556;28;45424;-78
2022/04/24 13:41:31;;;;;;;;;17.67;17.67;;;;;;;;5038428;28;45432;-73
2022/04/24 13:43:59;;;;;;;;;20.00;20.00;;;;;;;;5038107;28;45552;-75
2022/04/24 13:46:25;;;;;;;;;20.33;18.67;;;;;;;;5038950;28;45744;-76
2022/04/24 13:48:50;;;;;;;;;17.67;14.67;;;;;;;;5038910;28;45441;-75
2022/04/24 13:51:17;;;;;;;;;19.00;17.67;;;;;;;;5039087;28;45476;-78
2022/04/24 13:53:43;;;;;;;;;18.67;15.67;;;;;;;;5038902;28;45527;-76
2022/04/24 13:56:10;;;;;;;;;20.00;19.00;;;;;;;;5038501;28;45421;-76
2022/04/24 13:58:35;;;;;;;;;18.67;18.67;;;;;;;;5038846;28;45353;-75
2022/04/24 14:01:01;;;;;;;;;17.67;16.33;;;;;;;;5038325;28;46135;-76
2022/04/24 14:03:26;;;;;;;;;21.00;17.67;;;;;;;;5038350;28;45378;-76
2022/04/24 14:05:52;;;;;;;;;20.00;18.00;;;;;;;;5053016;28;45734;-76
2022/04/24 14:08:19;;;;;;;;;18.33;16.33;;;;;;;;5045297;28;45432;-76
2022/04/24 14:10:44;;;;;;;;;16.00;15.33;;;;;;;;5038211;28;46453;-77
2022/04/24 14:13:10;;;;;;;;;20.67;18.00;;;;;;;;5038338;28;45394;-75
2022/04/24 14:15:35;;;;;;;;;20.33;16.33;;;;;;;;5038381;28;45358;-74
2022/04/24 14:18:01;;;;;;;;;22.67;18.00;;;;;;;;5038824;28;45434;-77